sensor_id;sensor_type;location;lat;lon;timestamp;temperature;humidity
25352;DHT22;13304;48.464;8.712;2024-02-26T00:00:38;8.30;78.40
25352;DHT22;13304;48.464;8.712;2024-02-26T00:03:04;8.30;78.60
25352;DHT22;13304;48.464;8.712;2024-02-26T00:05:30;8.30;78.40
25352;DHT22;13304;48.464;8.712;2024-02-26T00:07:57;8.30;78.20
25352;DHT22;13304;48.464;8.712;2024-02-26T00:10:22;8.30;78.50
25352;DHT22;13304;48.464;8.712;2024-02-26T00:12:50;8.40;78.50
25352;DHT22;13304;48.464;8.712;2024-02-26T00:15:16;8.40;78.20
25352;DHT22;13304;48.464;8.712;2024-02-26T00:17:41;8.40;78.50
25352;DHT22;13304;48.464;8.712;2024-02-26T00:20:07;8.30;77.90
25352;DHT22;13304;48.464;8.712;2024-02-26T00:22:34;8.30;78.10
25352;DHT22;13304;48.464;8.712;2024-02-26T00:25:00;8.40;78.40
25352;DHT22;13304;48.464;8.712;2024-02-26T00:27:26;8.30;78.20
25352;DHT22;13304;48.464;8.712;2024-02-26T00:29:51;8.30;78.50
25352;DHT22;13304;48.464;8.712;2024-02-26T00:32:17;8.30;78.70
25352;DHT22;13304;48.464;8.712;2024-02-26T00:34:43;8.30;78.50
25352;DHT22;13304;48.464;8.712;2024-02-26T00:37:09;8.30;78.60
25352;DHT22;13304;48.464;8.712;2024-02-26T00:39:35;8.30;78.50
25352;DHT22;13304;48.464;8.712;2024-02-26T00:42:03;8.30;78.60
25352;DHT22;13304;48.464;8.712;2024-02-26T00:44:29;8.30;78.60
25352;DHT22;13304;48.464;8.712;2024-02-26T00:46:54;8.30;78.60
25352;DHT22;13304;48.464;8.712;2024-02-26T00:49:20;8.30;78.60
25352;DHT22;13304;48.464;8.712;2024-02-26T00:51:45;8.30;78.70
25352;DHT22;13304;48.464;8.712;2024-02-26T00:54:11;8.30;78.80
25352;DHT22;13304;48.464;8.712;2024-02-26T00:56:37;8.30;78.90
25352;DHT22;13304;48.464;8.712;2024-02-26T00:59:02;8.30;79.00
25352;DHT22;13304;48.464;8.712;2024-02-26T01:01:28;8.30;79.20
25352;DHT22;13304;48.464;8.712;2024-02-26T01:03:53;8.30;79.20
25352;DHT22;13304;48.464;8.712;2024-02-26T01:06:19;8.30;79.20
25352;DHT22;13304;48.464;8.712;2024-02-26T01:08:45;8.30;79.30
25352;DHT22;13304;48.464;8.712;2024-02-26T01:11:10;8.30;79.40
25352;DHT22;13304;48.464;8.712;2024-02-26T01:13:39;8.30;79.40
25352;DHT22;13304;48.464;8.712;2024-02-26T01:16:04;8.30;79.30
25352;DHT22;13304;48.464;8.712;2024-02-26T01:18:33;8.30;79.10
25352;DHT22;13304;48.464;8.712;2024-02-26T01:20:59;8.30;79.10
25352;DHT22;13304;48.464;8.712;2024-02-26T01:23:24;8.30;80.20
25352;DHT22;13304;48.464;8.712;2024-02-26T01:25:50;8.30;79.70
25352;DHT22;13304;48.464;8.712;2024-02-26T01:28:17;8.30;79.80
25352;DHT22;13304;48.464;8.712;2024-02-26T01:30:42;8.30;79.90
25352;DHT22;13304;48.464;8.712;2024-02-26T01:33:08;8.40;80.00
25352;DHT22;13304;48.464;8.712;2024-02-26T01:35:36;8.40;80.00
25352;DHT22;13304;48.464;8.712;2024-02-26T01:38:02;8.40;80.30
25352;DHT22;13304;48.464;8.712;2024-02-26T01:40:30;8.40;80.30
25352;DHT22;13304;48.464;8.712;2024-02-26T01:42:56;8.40;80.10
25352;DHT22;13304;48.464;8.712;2024-02-26T01:45:22;8.40;80.20
25352;DHT22;13304;48.464;8.712;2024-02-26T01:47:50;8.50;80.30
25352;DHT22;13304;48.464;8.712;2024-02-26T01:50:17;8.50;80.30
25352;DHT22;13304;48.464;8.712;2024-02-26T01:52:44;8.50;80.30
25352;DHT22;13304;48.464;8.712;2024-02-26T01:55:12;8.50;80.20
25352;DHT22;13304;48.464;8.712;2024-02-26T01:57:40;8.50;80.10
25352;DHT22;13304;48.464;8.712;2024-02-26T02:00:07;8.50;80.20
25352;DHT22;13304;48.464;8.712;2024-02-26T02:02:33;8.50;80.20
25352;DHT22;13304;48.464;8.712;2024-02-26T02:04:59;8.50;80.10
25352;DHT22;13304;48.464;8.712;2024-02-26T02:07:26;8.50;80.30
25352;DHT22;13304;48.464;8.712;2024-02-26T02:09:51;8.50;80.50
25352;DHT22;13304;48.464;8.712;2024-02-26T02:12:19;8.50;80.50
25352;DHT22;13304;48.464;8.712;2024-02-26T02:14:44;8.50;80.70
25352;DHT22;13304;48.464;8.712;2024-02-26T02:17:10;8.50;80.80
25352;DHT22;13304;48.464;8.712;2024-02-26T02:19:36;8.50;81.60
25352;DHT22;13304;48.464;8.712;2024-02-26T02:22:02;8.50;81.00
25352;DHT22;13304;48.464;8.712;2024-02-26T02:24:27;8.50;81.20
25352;DHT22;13304;48.464;8.712;2024-02-26T02:26:53;8.50;81.50
25352;DHT22;13304;48.464;8.712;2024-02-26T02:29:19;8.50;81.60
25352;DHT22;13304;48.464;8.712;2024-02-26T02:31:44;8.40;82.10
25352;DHT22;13304;48.464;8.712;2024-02-26T02:34:10;8.40;82.20
25352;DHT22;13304;48.464;8.712;2024-02-26T02:36:48;8.40;82.20
25352;DHT22;13304;48.464;8.712;2024-02-26T02:39:15;8.40;82.40
25352;DHT22;13304;48.464;8.712;2024-02-26T02:41:41;8.40;82.60
25352;DHT22;13304;48.464;8.712;2024-02-26T02:44:07;8.40;82.80
25352;DHT22;13304;48.464;8.712;2024-02-26T02:46:32;8.40;83.20
25352;DHT22;13304;48.464;8.712;2024-02-26T02:48:59;8.40;83.40
25352;DHT22;13304;48.464;8.712;2024-02-26T02:51:24;8.50;83.50
25352;DHT22;13304;48.464;8.712;2024-02-26T02:53:50;8.50;83.80
25352;DHT22;13304;48.464;8.712;2024-02-26T02:56:16;8.50;83.80
25352;DHT22;13304;48.464;8.712;2024-02-26T02:58:41;8.50;83.90
25352;DHT22;13304;48.464;8.712;2024-02-26T03:01:07;8.50;83.90
25352;DHT22;13304;48.464;8.712;2024-02-26T03:03:33;8.50;83.80
25352;DHT22;13304;48.464;8.712;2024-02-26T03:05:58;8.50;83.70
25352;DHT22;13304;48.464;8.712;2024-02-26T03:08:24;8.60;83.70
25352;DHT22;13304;48.464;8.712;2024-02-26T03:10:51;8.50;83.60
25352;DHT22;13304;48.464;8.712;2024-02-26T03:13:17;8.60;84.10
25352;DHT22;13304;48.464;8.712;2024-02-26T03:15:42;8.60;84.20
25352;DHT22;13304;48.464;8.712;2024-02-26T03:18:08;8.60;84.50
25352;DHT22;13304;48.464;8.712;2024-02-26T03:20:34;8.60;84.70
25352;DHT22;13304;48.464;8.712;2024-02-26T03:22:59;8.60;84.90
25352;DHT22;13304;48.464;8.712;2024-02-26T03:25:25;8.60;85.00
25352;DHT22;13304;48.464;8.712;2024-02-26T03:27:51;8.60;85.00
25352;DHT22;13304;48.464;8.712;2024-02-26T03:30:17;8.60;85.10
25352;DHT22;13304;48.464;8.712;2024-02-26T03:32:43;8.60;85.20
25352;DHT22;13304;48.464;8.712;2024-02-26T03:35:09;8.60;85.30
25352;DHT22;13304;48.464;8.712;2024-02-26T03:37:34;8.60;85.60
25352;DHT22;13304;48.464;8.712;2024-02-26T03:40:00;8.60;85.60
25352;DHT22;13304;48.464;8.712;2024-02-26T03:42:29;8.60;85.60
25352;DHT22;13304;48.464;8.712;2024-02-26T03:44:55;8.60;85.80
25352;DHT22;13304;48.464;8.712;2024-02-26T03:47:20;8.60;85.90
25352;DHT22;13304;48.464;8.712;2024-02-26T03:49:46;8.60;86.00
25352;DHT22;13304;48.464;8.712;2024-02-26T03:52:12;8.50;86.60
25352;DHT22;13304;48.464;8.712;2024-02-26T03:54:37;8.50;86.80
25352;DHT22;13304;48.464;8.712;2024-02-26T03:57:06;8.50;87.40
25352;DHT22;13304;48.464;8.712;2024-02-26T03:59:31;8.40;86.70
25352;DHT22;13304;48.464;8.712;2024-02-26T04:01:57;8.40;86.80
25352;DHT22;13304;48.464;8.712;2024-02-26T04:04:23;8.50;87.20
25352;DHT22;13304;48.464;8.712;2024-02-26T04:06:48;8.50;87.20
25352;DHT22;13304;48.464;8.712;2024-02-26T04:09:14;8.50;87.10
25352;DHT22;13304;48.464;8.712;2024-02-26T04:11:43;8.50;87.00
25352;DHT22;13304;48.464;8.712;2024-02-26T04:14:08;8.50;87.20
25352;DHT22;13304;48.464;8.712;2024-02-26T04:16:36;8.50;87.30
25352;DHT22;13304;48.464;8.712;2024-02-26T04:19:04;8.50;87.30
25352;DHT22;13304;48.464;8.712;2024-02-26T04:21:30;8.50;87.30
25352;DHT22;13304;48.464;8.712;2024-02-26T04:23:56;8.50;87.50
25352;DHT22;13304;48.464;8.712;2024-02-26T04:26:21;8.50;87.50
25352;DHT22;13304;48.464;8.712;2024-02-26T04:28:47;8.50;87.50
25352;DHT22;13304;48.464;8.712;2024-02-26T04:31:13;8.50;87.60
25352;DHT22;13304;48.464;8.712;2024-02-26T04:33:38;8.60;87.80
25352;DHT22;13304;48.464;8.712;2024-02-26T04:36:04;8.60;87.80
25352;DHT22;13304;48.464;8.712;2024-02-26T04:38:30;8.60;87.90
25352;DHT22;13304;48.464;8.712;2024-02-26T04:40:55;8.60;87.90
25352;DHT22;13304;48.464;8.712;2024-02-26T04:43:21;8.60;88.00
25352;DHT22;13304;48.464;8.712;2024-02-26T04:45:47;8.60;88.00
25352;DHT22;13304;48.464;8.712;2024-02-26T04:48:13;8.60;88.00
25352;DHT22;13304;48.464;8.712;2024-02-26T04:50:39;8.60;88.30
25352;DHT22;13304;48.464;8.712;2024-02-26T04:53:04;8.60;88.10
25352;DHT22;13304;48.464;8.712;2024-02-26T04:55:30;8.60;88.00
25352;DHT22;13304;48.464;8.712;2024-02-26T04:57:56;8.60;89.00
25352;DHT22;13304;48.464;8.712;2024-02-26T05:00:21;8.60;88.10
25352;DHT22;13304;48.464;8.712;2024-02-26T05:02:47;8.60;88.20
25352;DHT22;13304;48.464;8.712;2024-02-26T05:05:13;8.60;88.40
25352;DHT22;13304;48.464;8.712;2024-02-26T05:07:42;8.60;88.60
25352;DHT22;13304;48.464;8.712;2024-02-26T05:10:09;8.60;88.80
25352;DHT22;13304;48.464;8.712;2024-02-26T05:12:35;8.60;88.70
25352;DHT22;13304;48.464;8.712;2024-02-26T05:15:07;8.60;88.80
25352;DHT22;13304;48.464;8.712;2024-02-26T05:17:33;8.60;88.90
25352;DHT22;13304;48.464;8.712;2024-02-26T05:19:59;8.60;89.00
25352;DHT22;13304;48.464;8.712;2024-02-26T05:22:24;8.60;89.10
25352;DHT22;13304;48.464;8.712;2024-02-26T05:24:50;8.60;89.20
25352;DHT22;13304;48.464;8.712;2024-02-26T05:27:17;8.60;89.20
25352;DHT22;13304;48.464;8.712;2024-02-26T05:29:42;8.60;89.20
25352;DHT22;13304;48.464;8.712;2024-02-26T05:32:08;8.60;89.20
25352;DHT22;13304;48.464;8.712;2024-02-26T05:34:34;8.70;89.30
25352;DHT22;13304;48.464;8.712;2024-02-26T05:36:59;8.70;89.40
25352;DHT22;13304;48.464;8.712;2024-02-26T05:39:25;8.70;89.60
25352;DHT22;13304;48.464;8.712;2024-02-26T05:41:50;8.70;89.70
25352;DHT22;13304;48.464;8.712;2024-02-26T05:44:16;8.70;89.60
25352;DHT22;13304;48.464;8.712;2024-02-26T05:46:45;8.70;89.50
25352;DHT22;13304;48.464;8.712;2024-02-26T05:49:11;8.70;89.50
25352;DHT22;13304;48.464;8.712;2024-02-26T05:51:37;8.70;89.50
25352;DHT22;13304;48.464;8.712;2024-02-26T05:54:02;8.70;90.10
25352;DHT22;13304;48.464;8.712;2024-02-26T05:56:31;8.70;89.60
25352;DHT22;13304;48.464;8.712;2024-02-26T05:58:57;8.60;89.70
25352;DHT22;13304;48.464;8.712;2024-02-26T06:01:22;8.60;89.80
25352;DHT22;13304;48.464;8.712;2024-02-26T06:03:49;8.60;89.90
25352;DHT22;13304;48.464;8.712;2024-02-26T06:06:15;8.60;90.00
25352;DHT22;13304;48.464;8.712;2024-02-26T06:08:41;8.60;90.00
25352;DHT22;13304;48.464;8.712;2024-02-26T06:11:07;8.60;90.00
25352;DHT22;13304;48.464;8.712;2024-02-26T06:13:33;8.60;90.10
25352;DHT22;13304;48.464;8.712;2024-02-26T06:15:59;8.60;90.20
25352;DHT22;13304;48.464;8.712;2024-02-26T06:18:24;8.60;90.30
25352;DHT22;13304;48.464;8.712;2024-02-26T06:20:50;8.60;90.30
25352;DHT22;13304;48.464;8.712;2024-02-26T06:23:16;8.60;90.30
25352;DHT22;13304;48.464;8.712;2024-02-26T06:25:41;8.60;90.40
25352;DHT22;13304;48.464;8.712;2024-02-26T06:28:08;8.60;90.40
25352;DHT22;13304;48.464;8.712;2024-02-26T06:30:34;8.50;90.50
25352;DHT22;13304;48.464;8.712;2024-02-26T06:33:00;8.50;90.60
25352;DHT22;13304;48.464;8.712;2024-02-26T06:35:26;8.60;90.70
25352;DHT22;13304;48.464;8.712;2024-02-26T06:37:52;8.60;90.70
25352;DHT22;13304;48.464;8.712;2024-02-26T06:40:19;8.60;90.70
25352;DHT22;13304;48.464;8.712;2024-02-26T06:42:45;8.60;90.80
25352;DHT22;13304;48.464;8.712;2024-02-26T06:45:10;8.60;90.70
25352;DHT22;13304;48.464;8.712;2024-02-26T06:47:36;8.60;90.70
25352;DHT22;13304;48.464;8.712;2024-02-26T06:50:02;8.60;90.70
25352;DHT22;13304;48.464;8.712;2024-02-26T06:52:28;8.60;90.80
25352;DHT22;13304;48.464;8.712;2024-02-26T06:54:54;8.60;90.90
25352;DHT22;13304;48.464;8.712;2024-02-26T06:57:23;8.50;90.90
25352;DHT22;13304;48.464;8.712;2024-02-26T06:59:49;8.50;91.00
25352;DHT22;13304;48.464;8.712;2024-02-26T07:02:15;8.50;91.10
25352;DHT22;13304;48.464;8.712;2024-02-26T07:04:44;8.60;91.20
25352;DHT22;13304;48.464;8.712;2024-02-26T07:07:10;8.60;91.30
25352;DHT22;13304;48.464;8.712;2024-02-26T07:09:36;8.60;91.30
25352;DHT22;13304;48.464;8.712;2024-02-26T07:12:02;8.60;91.30
25352;DHT22;13304;48.464;8.712;2024-02-26T07:14:28;8.60;91.30
25352;DHT22;13304;48.464;8.712;2024-02-26T07:16:53;8.60;91.40
25352;DHT22;13304;48.464;8.712;2024-02-26T07:19:19;8.70;91.40
25352;DHT22;13304;48.464;8.712;2024-02-26T07:21:45;8.70;91.40
25352;DHT22;13304;48.464;8.712;2024-02-26T07:24:10;8.70;91.40
25352;DHT22;13304;48.464;8.712;2024-02-26T07:26:36;8.70;91.40
25352;DHT22;13304;48.464;8.712;2024-02-26T07:29:02;8.70;91.40
25352;DHT22;13304;48.464;8.712;2024-02-26T07:31:29;8.80;91.50
25352;DHT22;13304;48.464;8.712;2024-02-26T07:33:55;8.70;91.50
25352;DHT22;13304;48.464;8.712;2024-02-26T07:36:22;8.80;91.50
25352;DHT22;13304;48.464;8.712;2024-02-26T07:38:48;8.80;91.60
25352;DHT22;13304;48.464;8.712;2024-02-26T07:41:14;8.80;91.60
25352;DHT22;13304;48.464;8.712;2024-02-26T07:43:39;8.80;91.70
25352;DHT22;13304;48.464;8.712;2024-02-26T07:46:06;8.80;91.80
25352;DHT22;13304;48.464;8.712;2024-02-26T07:48:32;8.80;91.80
25352;DHT22;13304;48.464;8.712;2024-02-26T07:50:58;8.80;91.90
25352;DHT22;13304;48.464;8.712;2024-02-26T07:53:25;8.80;91.90
25352;DHT22;13304;48.464;8.712;2024-02-26T07:55:51;8.90;91.90
25352;DHT22;13304;48.464;8.712;2024-02-26T07:58:16;8.90;92.00
25352;DHT22;13304;48.464;8.712;2024-02-26T08:00:42;8.90;92.00
25352;DHT22;13304;48.464;8.712;2024-02-26T08:03:07;8.90;92.10
25352;DHT22;13304;48.464;8.712;2024-02-26T08:05:33;8.90;92.20
25352;DHT22;13304;48.464;8.712;2024-02-26T08:07:59;9.00;92.20
25352;DHT22;13304;48.464;8.712;2024-02-26T08:10:24;9.10;92.30
25352;DHT22;13304;48.464;8.712;2024-02-26T08:12:50;9.10;92.20
25352;DHT22;13304;48.464;8.712;2024-02-26T08:15:16;9.10;92.20
25352;DHT22;13304;48.464;8.712;2024-02-26T08:17:41;9.20;92.20
25352;DHT22;13304;48.464;8.712;2024-02-26T08:20:07;9.20;92.10
25352;DHT22;13304;48.464;8.712;2024-02-26T08:22:34;9.20;92.10
25352;DHT22;13304;48.464;8.712;2024-02-26T08:24:59;9.30;92.10
25352;DHT22;13304;48.464;8.712;2024-02-26T08:27:25;9.30;92.00
25352;DHT22;13304;48.464;8.712;2024-02-26T08:29:51;9.30;92.00
25352;DHT22;13304;48.464;8.712;2024-02-26T08:32:17;9.30;91.90
25352;DHT22;13304;48.464;8.712;2024-02-26T08:34:42;9.30;91.80
25352;DHT22;13304;48.464;8.712;2024-02-26T08:37:08;9.30;91.80
25352;DHT22;13304;48.464;8.712;2024-02-26T08:39:33;9.40;91.90
25352;DHT22;13304;48.464;8.712;2024-02-26T08:42:02;9.40;91.90
25352;DHT22;13304;48.464;8.712;2024-02-26T08:44:28;9.40;92.00
25352;DHT22;13304;48.464;8.712;2024-02-26T08:46:53;9.40;91.90
25352;DHT22;13304;48.464;8.712;2024-02-26T08:49:19;9.40;91.90
25352;DHT22;13304;48.464;8.712;2024-02-26T08:51:45;9.40;91.80
25352;DHT22;13304;48.464;8.712;2024-02-26T08:54:10;9.40;91.90
25352;DHT22;13304;48.464;8.712;2024-02-26T08:56:36;9.40;91.90
25352;DHT22;13304;48.464;8.712;2024-02-26T08:59:02;9.40;91.90
25352;DHT22;13304;48.464;8.712;2024-02-26T09:01:32;9.50;92.00
25352;DHT22;13304;48.464;8.712;2024-02-26T09:03:58;9.50;92.10
25352;DHT22;13304;48.464;8.712;2024-02-26T09:06:24;9.50;92.10
25352;DHT22;13304;48.464;8.712;2024-02-26T09:08:49;9.60;92.20
25352;DHT22;13304;48.464;8.712;2024-02-26T09:11:15;9.60;92.10
25352;DHT22;13304;48.464;8.712;2024-02-26T09:13:41;9.60;92.10
25352;DHT22;13304;48.464;8.712;2024-02-26T09:16:07;9.70;92.10
25352;DHT22;13304;48.464;8.712;2024-02-26T09:18:33;9.70;92.10
25352;DHT22;13304;48.464;8.712;2024-02-26T09:20:59;9.80;92.20
25352;DHT22;13304;48.464;8.712;2024-02-26T09:23:24;9.80;92.30
25352;DHT22;13304;48.464;8.712;2024-02-26T09:25:50;9.90;92.20
25352;DHT22;13304;48.464;8.712;2024-02-26T09:28:16;9.90;92.20
25352;DHT22;13304;48.464;8.712;2024-02-26T09:30:45;10.00;92.30
25352;DHT22;13304;48.464;8.712;2024-02-26T09:33:13;10.10;92.10
25352;DHT22;13304;48.464;8.712;2024-02-26T09:35:38;10.10;92.20
25352;DHT22;13304;48.464;8.712;2024-02-26T09:38:04;10.20;92.30
25352;DHT22;13304;48.464;8.712;2024-02-26T09:40:31;10.30;92.20
25352;DHT22;13304;48.464;8.712;2024-02-26T09:43:02;10.30;92.20
25352;DHT22;13304;48.464;8.712;2024-02-26T09:45:30;10.40;92.00
25352;DHT22;13304;48.464;8.712;2024-02-26T09:47:58;10.40;91.90
25352;DHT22;13304;48.464;8.712;2024-02-26T09:50:25;10.50;91.60
25352;DHT22;13304;48.464;8.712;2024-02-26T09:52:51;10.50;91.60
25352;DHT22;13304;48.464;8.712;2024-02-26T09:55:17;10.50;91.40
25352;DHT22;13304;48.464;8.712;2024-02-26T09:57:48;10.60;91.40
25352;DHT22;13304;48.464;8.712;2024-02-26T10:00:19;10.50;90.90
25352;DHT22;13304;48.464;8.712;2024-02-26T10:02:46;10.60;91.20
25352;DHT22;13304;48.464;8.712;2024-02-26T10:05:16;10.60;91.20
25352;DHT22;13304;48.464;8.712;2024-02-26T10:07:42;10.60;91.30
25352;DHT22;13304;48.464;8.712;2024-02-26T10:10:09;10.60;91.30
25352;DHT22;13304;48.464;8.712;2024-02-26T10:12:35;10.60;91.20
25352;DHT22;13304;48.464;8.712;2024-02-26T10:15:01;10.70;91.40
25352;DHT22;13304;48.464;8.712;2024-02-26T10:17:26;10.70;91.40
25352;DHT22;13304;48.464;8.712;2024-02-26T10:19:53;10.70;91.10
25352;DHT22;13304;48.464;8.712;2024-02-26T10:22:22;10.80;91.10
25352;DHT22;13304;48.464;8.712;2024-02-26T10:24:48;10.80;90.90
25352;DHT22;13304;48.464;8.712;2024-02-26T10:27:15;10.80;91.00
25352;DHT22;13304;48.464;8.712;2024-02-26T10:29:41;10.80;91.00
25352;DHT22;13304;48.464;8.712;2024-02-26T10:32:09;10.90;91.00
25352;DHT22;13304;48.464;8.712;2024-02-26T10:34:35;10.90;91.00
25352;DHT22;13304;48.464;8.712;2024-02-26T10:37:06;11.00;91.00
25352;DHT22;13304;48.464;8.712;2024-02-26T10:39:31;11.00;91.00
25352;DHT22;13304;48.464;8.712;2024-02-26T10:41:57;11.10;91.00
25352;DHT22;13304;48.464;8.712;2024-02-26T10:44:23;11.10;90.90
25352;DHT22;13304;48.464;8.712;2024-02-26T10:46:51;11.20;91.00
25352;DHT22;13304;48.464;8.712;2024-02-26T10:49:17;11.20;91.00
25352;DHT22;13304;48.464;8.712;2024-02-26T10:51:45;11.30;90.90
25352;DHT22;13304;48.464;8.712;2024-02-26T10:54:15;11.40;91.00
25352;DHT22;13304;48.464;8.712;2024-02-26T10:56:42;11.30;90.50
25352;DHT22;13304;48.464;8.712;2024-02-26T10:59:09;11.40;90.60
25352;DHT22;13304;48.464;8.712;2024-02-26T11:01:36;11.40;90.00
25352;DHT22;13304;48.464;8.712;2024-02-26T11:04:07;11.40;90.20
25352;DHT22;13304;48.464;8.712;2024-02-26T11:06:34;11.50;90.00
25352;DHT22;13304;48.464;8.712;2024-02-26T11:09:01;11.50;90.00
25352;DHT22;13304;48.464;8.712;2024-02-26T11:11:28;11.50;89.80
25352;DHT22;13304;48.464;8.712;2024-02-26T11:13:56;11.50;90.00
25352;DHT22;13304;48.464;8.712;2024-02-26T11:16:22;11.50;90.10
25352;DHT22;13304;48.464;8.712;2024-02-26T11:18:49;11.60;90.30
25352;DHT22;13304;48.464;8.712;2024-02-26T11:21:19;11.60;90.30
25352;DHT22;13304;48.464;8.712;2024-02-26T11:23:46;11.60;90.10
25352;DHT22;13304;48.464;8.712;2024-02-26T11:26:13;11.70;90.20
25352;DHT22;13304;48.464;8.712;2024-02-26T11:28:40;11.70;90.20
25352;DHT22;13304;48.464;8.712;2024-02-26T11:31:07;11.70;90.00
25352;DHT22;13304;48.464;8.712;2024-02-26T11:33:34;11.80;89.90
25352;DHT22;13304;48.464;8.712;2024-02-26T11:36:02;11.80;89.50
25352;DHT22;13304;48.464;8.712;2024-02-26T11:38:33;11.90;89.40
25352;DHT22;13304;48.464;8.712;2024-02-26T11:40:59;11.90;88.70
25352;DHT22;13304;48.464;8.712;2024-02-26T11:43:53;12.00;88.70
25352;DHT22;13304;48.464;8.712;2024-02-26T11:46:29;12.00;87.50
25352;DHT22;13304;48.464;8.712;2024-02-26T11:49:00;12.00;88.00
25352;DHT22;13304;48.464;8.712;2024-02-26T11:51:27;12.10;88.70
25352;DHT22;13304;48.464;8.712;2024-02-26T11:53:54;12.20;88.20
25352;DHT22;13304;48.464;8.712;2024-02-26T11:56:23;12.10;87.60
25352;DHT22;13304;48.464;8.712;2024-02-26T11:58:56;12.20;86.70
25352;DHT22;13304;48.464;8.712;2024-02-26T12:01:38;12.20;86.80
25352;DHT22;13304;48.464;8.712;2024-02-26T12:04:05;12.20;85.70
25352;DHT22;13304;48.464;8.712;2024-02-26T12:06:53;12.20;86.90
25352;DHT22;13304;48.464;8.712;2024-02-26T12:11:56;12.10;85.90
25352;DHT22;13304;48.464;8.712;2024-02-26T12:14:25;12.20;87.00
25352;DHT22;13304;48.464;8.712;2024-02-26T12:16:51;12.20;86.70
25352;DHT22;13304;48.464;8.712;2024-02-26T12:19:18;12.10;85.80
25352;DHT22;13304;48.464;8.712;2024-02-26T12:21:44;12.20;87.60
25352;DHT22;13304;48.464;8.712;2024-02-26T12:24:14;12.30;87.60
25352;DHT22;13304;48.464;8.712;2024-02-26T12:26:41;12.20;86.90
25352;DHT22;13304;48.464;8.712;2024-02-26T12:29:08;12.30;86.60
25352;DHT22;13304;48.464;8.712;2024-02-26T12:31:34;12.30;86.80
25352;DHT22;13304;48.464;8.712;2024-02-26T12:34:03;12.30;87.40
25352;DHT22;13304;48.464;8.712;2024-02-26T12:36:29;12.30;87.20
25352;DHT22;13304;48.464;8.712;2024-02-26T12:38:55;12.30;85.90
25352;DHT22;13304;48.464;8.712;2024-02-26T12:41:22;12.40;85.90
25352;DHT22;13304;48.464;8.712;2024-02-26T12:43:48;12.40;85.70
25352;DHT22;13304;48.464;8.712;2024-02-26T12:46:15;12.50;86.00
25352;DHT22;13304;48.464;8.712;2024-02-26T12:48:44;12.50;85.70
25352;DHT22;13304;48.464;8.712;2024-02-26T12:51:12;12.50;84.10
25352;DHT22;13304;48.464;8.712;2024-02-26T12:53:38;12.50;85.40
25352;DHT22;13304;48.464;8.712;2024-02-26T12:56:07;12.60;85.70
25352;DHT22;13304;48.464;8.712;2024-02-26T12:58:34;12.70;85.40
25352;DHT22;13304;48.464;8.712;2024-02-26T13:01:00;12.70;84.40
25352;DHT22;13304;48.464;8.712;2024-02-26T13:03:27;12.70;84.40
25352;DHT22;13304;48.464;8.712;2024-02-26T13:05:53;12.70;84.30
25352;DHT22;13304;48.464;8.712;2024-02-26T13:08:22;12.80;82.50
25352;DHT22;13304;48.464;8.712;2024-02-26T13:10:48;12.80;82.70
25352;DHT22;13304;48.464;8.712;2024-02-26T13:13:16;12.80;83.60
25352;DHT22;13304;48.464;8.712;2024-02-26T13:15:43;12.80;82.30
25352;DHT22;13304;48.464;8.712;2024-02-26T13:18:10;12.90;83.20
25352;DHT22;13304;48.464;8.712;2024-02-26T13:20:36;12.80;82.20
25352;DHT22;13304;48.464;8.712;2024-02-26T13:23:14;12.90;82.90
25352;DHT22;13304;48.464;8.712;2024-02-26T13:25:40;12.80;82.30
25352;DHT22;13304;48.464;8.712;2024-02-26T13:28:06;12.90;82.50
25352;DHT22;13304;48.464;8.712;2024-02-26T13:30:33;12.90;82.70
25352;DHT22;13304;48.464;8.712;2024-02-26T13:33:07;12.90;82.20
25352;DHT22;13304;48.464;8.712;2024-02-26T13:35:34;12.90;81.70
25352;DHT22;13304;48.464;8.712;2024-02-26T13:38:00;12.90;82.70
25352;DHT22;13304;48.464;8.712;2024-02-26T13:40:26;13.00;82.70
25352;DHT22;13304;48.464;8.712;2024-02-26T13:42:52;12.90;81.10
25352;DHT22;13304;48.464;8.712;2024-02-26T13:45:18;13.00;81.50
25352;DHT22;13304;48.464;8.712;2024-02-26T13:47:44;13.10;82.20
25352;DHT22;13304;48.464;8.712;2024-02-26T13:50:10;13.10;81.60
25352;DHT22;13304;48.464;8.712;2024-02-26T13:52:35;13.10;81.00
25352;DHT22;13304;48.464;8.712;2024-02-26T13:55:01;13.10;80.20
25352;DHT22;13304;48.464;8.712;2024-02-26T13:57:28;13.20;80.70
25352;DHT22;13304;48.464;8.712;2024-02-26T13:59:55;13.20;80.40
25352;DHT22;13304;48.464;8.712;2024-02-26T14:02:21;13.20;79.50
25352;DHT22;13304;48.464;8.712;2024-02-26T14:04:47;13.20;79.90
25352;DHT22;13304;48.464;8.712;2024-02-26T14:07:15;13.30;79.20
25352;DHT22;13304;48.464;8.712;2024-02-26T14:09:42;13.30;78.10
25352;DHT22;13304;48.464;8.712;2024-02-26T14:12:09;13.30;77.90
25352;DHT22;13304;48.464;8.712;2024-02-26T14:14:34;13.30;78.70
25352;DHT22;13304;48.464;8.712;2024-02-26T14:17:04;13.30;78.10
25352;DHT22;13304;48.464;8.712;2024-02-26T14:19:29;13.30;76.10
25352;DHT22;13304;48.464;8.712;2024-02-26T14:21:55;13.30;77.40
25352;DHT22;13304;48.464;8.712;2024-02-26T14:24:21;13.30;76.30
25352;DHT22;13304;48.464;8.712;2024-02-26T14:26:46;13.30;75.50
25352;DHT22;13304;48.464;8.712;2024-02-26T14:29:12;13.20;76.10
25352;DHT22;13304;48.464;8.712;2024-02-26T14:31:38;13.20;75.90
25352;DHT22;13304;48.464;8.712;2024-02-26T14:34:03;13.20;76.20
25352;DHT22;13304;48.464;8.712;2024-02-26T14:36:29;13.30;77.10
25352;DHT22;13304;48.464;8.712;2024-02-26T14:38:55;13.30;75.80
25352;DHT22;13304;48.464;8.712;2024-02-26T14:41:21;13.30;76.50
25352;DHT22;13304;48.464;8.712;2024-02-26T14:43:46;13.30;76.00
25352;DHT22;13304;48.464;8.712;2024-02-26T14:46:15;13.30;75.20
25352;DHT22;13304;48.464;8.712;2024-02-26T14:48:41;13.30;75.60
25352;DHT22;13304;48.464;8.712;2024-02-26T14:51:06;13.20;75.70
25352;DHT22;13304;48.464;8.712;2024-02-26T14:53:32;13.30;76.30
25352;DHT22;13304;48.464;8.712;2024-02-26T14:55:58;13.30;76.20
25352;DHT22;13304;48.464;8.712;2024-02-26T14:58:25;13.30;75.70
25352;DHT22;13304;48.464;8.712;2024-02-26T15:00:51;13.40;75.70
25352;DHT22;13304;48.464;8.712;2024-02-26T15:03:16;13.40;75.50
25352;DHT22;13304;48.464;8.712;2024-02-26T15:05:42;13.30;75.30
25352;DHT22;13304;48.464;8.712;2024-02-26T15:08:08;13.40;76.40
25352;DHT22;13304;48.464;8.712;2024-02-26T15:10:35;13.40;76.80
25352;DHT22;13304;48.464;8.712;2024-02-26T15:13:01;13.40;77.10
25352;DHT22;13304;48.464;8.712;2024-02-26T15:15:27;13.50;77.70
25352;DHT22;13304;48.464;8.712;2024-02-26T15:17:53;13.50;77.20
25352;DHT22;13304;48.464;8.712;2024-02-26T15:20:19;13.50;77.40
25352;DHT22;13304;48.464;8.712;2024-02-26T15:22:44;13.50;77.80
25352;DHT22;13304;48.464;8.712;2024-02-26T15:25:12;13.50;77.80
25352;DHT22;13304;48.464;8.712;2024-02-26T15:27:37;13.50;76.80
25352;DHT22;13304;48.464;8.712;2024-02-26T15:30:03;13.60;77.10
25352;DHT22;13304;48.464;8.712;2024-02-26T15:32:29;13.60;77.50
25352;DHT22;13304;48.464;8.712;2024-02-26T15:34:55;13.60;77.20
25352;DHT22;13304;48.464;8.712;2024-02-26T15:37:21;13.60;76.90